San Jose, CA (95127)

5:33 AM PDT on August 23, 2014 (GMT -0700)
Utopia Pl | Change Station
CLOSE
Current Station
Personal Weather Station
Location: San Jose, CA
Elevation: 301 ft
Nearby Weather Stations

Elev 301 ft 37.36 °N, 121.80 °W | Updated 7 seconds ago

Overcast
Overcast
59.0 °F
Feels Like 59.0 °F
N
0.0
Wind Variable Wind from East
Gusts 1.3 mph

Today
High -- | Low -- °F
--% Chance of Precip.
Yesterday
High -- | Low -- °F
Precip. -- in
6:30 AM 7:48 PM
Waning Crescent, 4% visible
Pressure 29.91 in
Visibility 10.0 miles
Clouds Overcast 1100 ft
Dew Point 54 °F
Humidity 84%
Rainfall 0.00 in
Snow Depth Not available.
UV 0 out of 12
Pollen 5.90 out of 12
Air Quality Not available.
Flu Activity Not available.
METAR KSJC 231153Z AUTO 11009KT 10SM OVC011 16/13 A2991

More Conditions Fewer Conditions

Pressure 29.91 in
Visibility 10.0 miles
Clouds Overcast 1100 ft
Dew Point 54 °F
Humidity 84%
Rainfall 0.00 in
Snow Depth Not available.
UV 0 out of 12
Pollen 5.90 out of 12
Air Quality Not available.
Flu Activity Not available.
METAR KSJC 231153Z AUTO 11009KT 10SM OVC011 16/13 A2991

More Conditions Fewer Conditions

10-Day Weather Forecast

Almanac

Astronomy

Aug. 23, 2014 Rise Set
Actual Time 6:30 AM PDT 7:48 PM PDT
Civil Twilight 6:03 AM PDT 8:15 PM PDT
Nautical Twilight 5:30 AM PDT 8:48 PM PDT
Astronomical Twilight 4:56 AM PDT 9:22 PM PDT
Moon 4:52 AM PDT 6:36 PM PDT
Length of Visible Light 14h 12m
Length of Day
13h 18m
Tomorrow will be 2m 13s shorter.
Waning Crescent, 4% of the Moon is Illuminated
Today
Waning Crescent
Aug 25
New
Sep 2
First Quarter
Sep 8
Full
Sep 15
Last Quarter

Today's Extremes

State Highs State Lows

Community

WunderPhotos

Upload Photos

1,746,428 photos uploaded!

WunderBlogs® & News

By Dr. Jeff Masters
Director of Meteorology, Weather Underground
By Kari Strenfel
Meteorologist, Weather Underground
By Christopher C. Burt
Weather Historian, Weather Underground
August 23, 2014
August 23, 2014
August 23, 2014

Nearby

Air Quality

  Air Quality AQ Index Pollutant
Yesterday Good
OZONE
Yesterday Good
PM2.5
Saturday Good
OZONE
Sunday Good
OZONE
Monday Good
OZONE
Tuesday Good
OZONE
Wednesday Moderate
OZONE

Snow Depth

Station Depth Elevation
Blue Lakes 0 in 8000 ft
Leavitt Lake 0 in 9400 ft
Forestdale Creek 0 in 8029 ft
Ebbetts Pass 0 in 8700 ft
Sonora Pass 0 in 8800 ft

Earthquake Activity

City Distance Mag. Time & Date
Coalinga, California 113 miles 2.5 7:03 AM PDT
2014-08-18
Berkeley, California 41 miles 2.6 7:41 PM PDT
2014-08-16
Minimum magnitude displayed is 2.5.

Coastal Water Temperatures

Place Temperature
No Stations Reporting

Nearby Weather Stations